sensor_id;sensor_type;location;lat;lon;timestamp;P1;P2;P0
77974;PMS5003;67164;51.202;0.278;2023-11-22T00:01:03;3;3;
77974;PMS5003;67164;51.202;0.278;2023-11-22T00:03:28;2;2;
77974;PMS5003;67164;51.202;0.278;2023-11-22T00:05:54;3;2;
77974;PMS5003;67164;51.202;0.278;2023-11-22T00:08:20;3;1;
77974;PMS5003;67164;51.202;0.278;2023-11-22T00:10:46;2;2;
77974;PMS5003;67164;51.202;0.278;2023-11-22T00:13:11;3;1;
77974;PMS5003;67164;51.202;0.278;2023-11-22T00:15:37;3;2;
77974;PMS5003;67164;51.202;0.278;2023-11-22T00:18:03;1;1;
77974;PMS5003;67164;51.202;0.278;2023-11-22T00:20:29;3;3;
77974;PMS5003;67164;51.202;0.278;2023-11-22T00:22:54;4;2;
77974;PMS5003;67164;51.202;0.278;2023-11-22T00:25:20;8;3;
77974;PMS5003;67164;51.202;0.278;2023-11-22T00:27:46;3;3;
77974;PMS5003;67164;51.202;0.278;2023-11-22T00:30:13;8;3;
77974;PMS5003;67164;51.202;0.278;2023-11-22T00:32:37;2;2;
77974;PMS5003;67164;51.202;0.278;2023-11-22T00:35:03;5;3;
77974;PMS5003;67164;51.202;0.278;2023-11-22T00:37:29;2;2;
77974;PMS5003;67164;51.202;0.278;2023-11-22T00:39:55;4;3;
77974;PMS5003;67164;51.202;0.278;2023-11-22T00:42:21;2;2;
77974;PMS5003;67164;51.202;0.278;2023-11-22T00:44:46;4;3;
77974;PMS5003;67164;51.202;0.278;2023-11-22T00:47:12;2;2;
77974;PMS5003;67164;51.202;0.278;2023-11-22T00:49:38;1;1;
77974;PMS5003;67164;51.202;0.278;2023-11-22T00:52:04;2;2;
77974;PMS5003;67164;51.202;0.278;2023-11-22T00:54:29;3;3;
77974;PMS5003;67164;51.202;0.278;2023-11-22T00:56:55;4;3;
77974;PMS5003;67164;51.202;0.278;2023-11-22T00:59:21;3;3;
77974;PMS5003;67164;51.202;0.278;2023-11-22T01:01:47;1;1;
77974;PMS5003;67164;51.202;0.278;2023-11-22T01:04:13;3;3;
77974;PMS5003;67164;51.202;0.278;2023-11-22T01:06:38;2;2;
77974;PMS5003;67164;51.202;0.278;2023-11-22T01:09:04;2;2;
77974;PMS5003;67164;51.202;0.278;2023-11-22T01:11:30;3;3;
77974;PMS5003;67164;51.202;0.278;2023-11-22T01:13:56;4;2;
77974;PMS5003;67164;51.202;0.278;2023-11-22T01:16:22;4;2;
77974;PMS5003;67164;51.202;0.278;2023-11-22T01:18:47;4;3;
77974;PMS5003;67164;51.202;0.278;2023-11-22T01:21:13;2;2;
77974;PMS5003;67164;51.202;0.278;2023-11-22T01:23:39;3;2;
77974;PMS5003;67164;51.202;0.278;2023-11-22T01:26:05;3;3;
77974;PMS5003;67164;51.202;0.278;2023-11-22T01:28:30;0;0;
77974;PMS5003;67164;51.202;0.278;2023-11-22T01:30:56;4;3;
77974;PMS5003;67164;51.202;0.278;2023-11-22T01:33:22;2;2;
77974;PMS5003;67164;51.202;0.278;2023-11-22T01:35:49;2;2;
77974;PMS5003;67164;51.202;0.278;2023-11-22T01:38:14;3;3;
77974;PMS5003;67164;51.202;0.278;2023-11-22T01:40:43;4;2;
77974;PMS5003;67164;51.202;0.278;2023-11-22T01:43:05;3;1;
77974;PMS5003;67164;51.202;0.278;2023-11-22T01:45:31;3;3;
77974;PMS5003;67164;51.202;0.278;2023-11-22T01:47:56;5;4;
77974;PMS5003;67164;51.202;0.278;2023-11-22T01:50:22;2;2;
77974;PMS5003;67164;51.202;0.278;2023-11-22T01:52:48;3;3;
77974;PMS5003;67164;51.202;0.278;2023-11-22T01:55:14;2;2;
77974;PMS5003;67164;51.202;0.278;2023-11-22T01:57:39;2;2;
77974;PMS5003;67164;51.202;0.278;2023-11-22T02:00:06;6;4;
77974;PMS5003;67164;51.202;0.278;2023-11-22T02:02:31;3;2;
77974;PMS5003;67164;51.202;0.278;2023-11-22T02:04:57;3;3;
77974;PMS5003;67164;51.202;0.278;2023-11-22T02:07:23;2;2;
77974;PMS5003;67164;51.202;0.278;2023-11-22T02:09:48;4;4;
77974;PMS5003;67164;51.202;0.278;2023-11-22T02:12:14;4;2;
77974;PMS5003;67164;51.202;0.278;2023-11-22T02:14:40;3;2;
77974;PMS5003;67164;51.202;0.278;2023-11-22T02:17:06;2;2;
77974;PMS5003;67164;51.202;0.278;2023-11-22T02:19:31;2;2;
77974;PMS5003;67164;51.202;0.278;2023-11-22T02:21:57;2;1;
77974;PMS5003;67164;51.202;0.278;2023-11-22T02:24:23;3;3;
77974;PMS5003;67164;51.202;0.278;2023-11-22T02:26:49;2;2;
77974;PMS5003;67164;51.202;0.278;2023-11-22T02:29:15;4;2;
77974;PMS5003;67164;51.202;0.278;2023-11-22T02:31:41;3;3;
77974;PMS5003;67164;51.202;0.278;2023-11-22T02:34:06;1;1;
77974;PMS5003;67164;51.202;0.278;2023-11-22T02:36:32;5;3;
77974;PMS5003;67164;51.202;0.278;2023-11-22T02:38:58;4;2;
77974;PMS5003;67164;51.202;0.278;2023-11-22T02:41:23;6;3;
77974;PMS5003;67164;51.202;0.278;2023-11-22T02:43:49;3;3;
77974;PMS5003;67164;51.202;0.278;2023-11-22T02:46:15;3;2;
77974;PMS5003;67164;51.202;0.278;2023-11-22T02:48:41;2;2;
77974;PMS5003;67164;51.202;0.278;2023-11-22T02:51:07;4;3;
77974;PMS5003;67164;51.202;0.278;2023-11-22T02:53:32;3;2;
77974;PMS5003;67164;51.202;0.278;2023-11-22T02:55:59;3;3;
77974;PMS5003;67164;51.202;0.278;2023-11-22T02:58:24;4;4;
77974;PMS5003;67164;51.202;0.278;2023-11-22T03:00:50;3;2;
77974;PMS5003;67164;51.202;0.278;2023-11-22T03:03:15;4;4;
77974;PMS5003;67164;51.202;0.278;2023-11-22T03:05:41;3;3;
77974;PMS5003;67164;51.202;0.278;2023-11-22T03:08:07;1;1;
77974;PMS5003;67164;51.202;0.278;2023-11-22T03:10:33;3;3;
77974;PMS5003;67164;51.202;0.278;2023-11-22T03:12:59;5;4;
77974;PMS5003;67164;51.202;0.278;2023-11-22T03:15:24;2;2;
77974;PMS5003;67164;51.202;0.278;2023-11-22T03:17:50;3;3;
77974;PMS5003;67164;51.202;0.278;2023-11-22T03:20:16;2;2;
77974;PMS5003;67164;51.202;0.278;2023-11-22T03:22:42;3;2;
77974;PMS5003;67164;51.202;0.278;2023-11-22T03:25:08;3;2;
77974;PMS5003;67164;51.202;0.278;2023-11-22T03:27:33;1;1;
77974;PMS5003;67164;51.202;0.278;2023-11-22T03:29:59;4;3;
77974;PMS5003;67164;51.202;0.278;2023-11-22T03:32:25;2;2;
77974;PMS5003;67164;51.202;0.278;2023-11-22T03:34:51;3;3;
77974;PMS5003;67164;51.202;0.278;2023-11-22T03:37:17;2;2;
77974;PMS5003;67164;51.202;0.278;2023-11-22T03:39:42;4;3;
77974;PMS5003;67164;51.202;0.278;2023-11-22T03:42:08;2;2;
77974;PMS5003;67164;51.202;0.278;2023-11-22T03:44:34;3;3;
77974;PMS5003;67164;51.202;0.278;2023-11-22T03:47:00;2;2;
77974;PMS5003;67164;51.202;0.278;2023-11-22T03:49:26;2;2;
77974;PMS5003;67164;51.202;0.278;2023-11-22T03:51:51;4;2;
77974;PMS5003;67164;51.202;0.278;2023-11-22T03:54:17;2;2;
77974;PMS5003;67164;51.202;0.278;2023-11-22T03:56:43;2;2;
77974;PMS5003;67164;51.202;0.278;2023-11-22T03:59:09;3;3;
77974;PMS5003;67164;51.202;0.278;2023-11-22T04:01:34;4;3;
77974;PMS5003;67164;51.202;0.278;2023-11-22T04:04:00;3;3;
77974;PMS5003;67164;51.202;0.278;2023-11-22T04:06:26;2;2;
77974;PMS5003;67164;51.202;0.278;2023-11-22T04:08:52;2;2;
77974;PMS5003;67164;51.202;0.278;2023-11-22T04:11:18;3;3;
77974;PMS5003;67164;51.202;0.278;2023-11-22T04:13:44;1;1;
77974;PMS5003;67164;51.202;0.278;2023-11-22T04:16:09;3;3;
77974;PMS5003;67164;51.202;0.278;2023-11-22T04:18:35;3;3;
77974;PMS5003;67164;51.202;0.278;2023-11-22T04:21:01;3;2;
77974;PMS5003;67164;51.202;0.278;2023-11-22T04:23:27;4;4;
77974;PMS5003;67164;51.202;0.278;2023-11-22T04:25:52;4;2;
77974;PMS5003;67164;51.202;0.278;2023-11-22T04:28:18;7;4;
77974;PMS5003;67164;51.202;0.278;2023-11-22T04:30:44;3;1;
77974;PMS5003;67164;51.202;0.278;2023-11-22T04:33:10;4;3;
77974;PMS5003;67164;51.202;0.278;2023-11-22T04:35:36;4;3;
77974;PMS5003;67164;51.202;0.278;2023-11-22T04:38:01;3;3;
77974;PMS5003;67164;51.202;0.278;2023-11-22T04:40:27;3;3;
77974;PMS5003;67164;51.202;0.278;2023-11-22T04:42:53;5;3;
77974;PMS5003;67164;51.202;0.278;2023-11-22T04:45:19;4;4;
77974;PMS5003;67164;51.202;0.278;2023-11-22T04:47:45;3;3;
77974;PMS5003;67164;51.202;0.278;2023-11-22T04:50:10;2;2;
77974;PMS5003;67164;51.202;0.278;2023-11-22T04:52:36;3;3;
77974;PMS5003;67164;51.202;0.278;2023-11-22T04:55:02;3;3;
77974;PMS5003;67164;51.202;0.278;2023-11-22T04:57:28;6;3;
77974;PMS5003;67164;51.202;0.278;2023-11-22T04:59:53;4;4;
77974;PMS5003;67164;51.202;0.278;2023-11-22T05:02:19;2;2;
77974;PMS5003;67164;51.202;0.278;2023-11-22T05:04:45;5;4;
77974;PMS5003;67164;51.202;0.278;2023-11-22T05:07:11;4;4;
77974;PMS5003;67164;51.202;0.278;2023-11-22T05:09:37;3;3;
77974;PMS5003;67164;51.202;0.278;2023-11-22T05:12:03;5;5;
77974;PMS5003;67164;51.202;0.278;2023-11-22T05:14:28;6;3;
77974;PMS5003;67164;51.202;0.278;2023-11-22T05:16:54;3;3;
77974;PMS5003;67164;51.202;0.278;2023-11-22T05:19:20;1;1;
77974;PMS5003;67164;51.202;0.278;2023-11-22T05:21:46;3;3;
77974;PMS5003;67164;51.202;0.278;2023-11-22T05:24:11;4;3;
77974;PMS5003;67164;51.202;0.278;2023-11-22T05:26:37;4;4;
77974;PMS5003;67164;51.202;0.278;2023-11-22T05:29:03;2;2;
77974;PMS5003;67164;51.202;0.278;2023-11-22T05:31:29;4;4;
77974;PMS5003;67164;51.202;0.278;2023-11-22T05:33:54;4;3;
77974;PMS5003;67164;51.202;0.278;2023-11-22T05:36:20;4;4;
77974;PMS5003;67164;51.202;0.278;2023-11-22T05:38:46;6;4;
77974;PMS5003;67164;51.202;0.278;2023-11-22T05:41:12;4;4;
77974;PMS5003;67164;51.202;0.278;2023-11-22T05:43:38;3;3;
77974;PMS5003;67164;51.202;0.278;2023-11-22T05:46:03;5;3;
77974;PMS5003;67164;51.202;0.278;2023-11-22T05:48:29;2;2;
77974;PMS5003;67164;51.202;0.278;2023-11-22T05:50:55;6;4;
77974;PMS5003;67164;51.202;0.278;2023-11-22T05:53:21;3;3;
77974;PMS5003;67164;51.202;0.278;2023-11-22T05:55:46;4;4;
77974;PMS5003;67164;51.202;0.278;2023-11-22T05:58:12;3;3;
77974;PMS5003;67164;51.202;0.278;2023-11-22T06:00:38;5;4;
77974;PMS5003;67164;51.202;0.278;2023-11-22T06:03:04;4;4;
77974;PMS5003;67164;51.202;0.278;2023-11-22T06:05:30;6;4;
77974;PMS5003;67164;51.202;0.278;2023-11-22T06:07:58;4;2;
77974;PMS5003;67164;51.202;0.278;2023-11-22T06:10:21;3;3;
77974;PMS5003;67164;51.202;0.278;2023-11-22T06:12:47;2;2;
77974;PMS5003;67164;51.202;0.278;2023-11-22T06:15:13;2;2;
77974;PMS5003;67164;51.202;0.278;2023-11-22T06:17:39;4;3;
77974;PMS5003;67164;51.202;0.278;2023-11-22T06:20:05;3;3;
77974;PMS5003;67164;51.202;0.278;2023-11-22T06:22:30;1;1;
77974;PMS5003;67164;51.202;0.278;2023-11-22T06:24:56;3;3;
77974;PMS5003;67164;51.202;0.278;2023-11-22T06:27:22;5;3;
77974;PMS5003;67164;51.202;0.278;2023-11-22T06:29:48;5;4;
77974;PMS5003;67164;51.202;0.278;2023-11-22T06:32:13;3;3;
77974;PMS5003;67164;51.202;0.278;2023-11-22T06:34:39;2;2;
77974;PMS5003;67164;51.202;0.278;2023-11-22T06:37:05;3;3;
77974;PMS5003;67164;51.202;0.278;2023-11-22T06:39:31;3;2;
77974;PMS5003;67164;51.202;0.278;2023-11-22T06:41:56;2;2;
77974;PMS5003;67164;51.202;0.278;2023-11-22T06:44:22;2;2;
77974;PMS5003;67164;51.202;0.278;2023-11-22T06:46:48;3;3;
77974;PMS5003;67164;51.202;0.278;2023-11-22T06:49:14;6;3;
77974;PMS5003;67164;51.202;0.278;2023-11-22T06:51:40;1;1;
77974;PMS5003;67164;51.202;0.278;2023-11-22T06:54:06;2;2;
77974;PMS5003;67164;51.202;0.278;2023-11-22T06:56:31;3;3;
77974;PMS5003;67164;51.202;0.278;2023-11-22T06:58:57;3;3;
77974;PMS5003;67164;51.202;0.278;2023-11-22T07:01:23;5;5;
77974;PMS5003;67164;51.202;0.278;2023-11-22T07:03:48;4;3;
77974;PMS5003;67164;51.202;0.278;2023-11-22T07:06:14;5;5;
77974;PMS5003;67164;51.202;0.278;2023-11-22T07:08:40;3;3;
77974;PMS5003;67164;51.202;0.278;2023-11-22T07:11:06;4;4;
77974;PMS5003;67164;51.202;0.278;2023-11-22T07:13:32;4;4;
77974;PMS5003;67164;51.202;0.278;2023-11-22T07:15:57;2;2;
77974;PMS5003;67164;51.202;0.278;2023-11-22T07:18:23;3;3;
77974;PMS5003;67164;51.202;0.278;2023-11-22T07:20:49;3;3;
77974;PMS5003;67164;51.202;0.278;2023-11-22T07:23:15;5;3;
77974;PMS5003;67164;51.202;0.278;2023-11-22T07:25:41;4;2;
77974;PMS5003;67164;51.202;0.278;2023-11-22T07:28:07;3;3;
77974;PMS5003;67164;51.202;0.278;2023-11-22T07:30:32;4;2;
77974;PMS5003;67164;51.202;0.278;2023-11-22T07:32:58;3;3;
77974;PMS5003;67164;51.202;0.278;2023-11-22T07:35:24;3;3;
77974;PMS5003;67164;51.202;0.278;2023-11-22T07:37:50;4;3;
77974;PMS5003;67164;51.202;0.278;2023-11-22T07:40:15;3;3;
77974;PMS5003;67164;51.202;0.278;2023-11-22T07:42:41;4;2;
77974;PMS5003;67164;51.202;0.278;2023-11-22T07:45:12;3;3;
77974;PMS5003;67164;51.202;0.278;2023-11-22T07:47:33;3;3;
77974;PMS5003;67164;51.202;0.278;2023-11-22T07:49:59;6;4;
77974;PMS5003;67164;51.202;0.278;2023-11-22T07:52:24;2;2;
77974;PMS5003;67164;51.202;0.278;2023-11-22T07:54:50;4;3;
77974;PMS5003;67164;51.202;0.278;2023-11-22T07:57:16;2;2;
77974;PMS5003;67164;51.202;0.278;2023-11-22T07:59:42;3;3;
77974;PMS5003;67164;51.202;0.278;2023-11-22T08:02:08;6;5;
77974;PMS5003;67164;51.202;0.278;2023-11-22T08:04:33;3;3;
77974;PMS5003;67164;51.202;0.278;2023-11-22T08:06:59;3;3;
77974;PMS5003;67164;51.202;0.278;2023-11-22T08:09:25;4;4;
77974;PMS5003;67164;51.202;0.278;2023-11-22T08:11:51;3;3;
77974;PMS5003;67164;51.202;0.278;2023-11-22T08:14:17;6;4;
77974;PMS5003;67164;51.202;0.278;2023-11-22T08:16:42;3;3;
77974;PMS5003;67164;51.202;0.278;2023-11-22T08:19:09;4;3;
77974;PMS5003;67164;51.202;0.278;2023-11-22T08:21:34;6;4;
77974;PMS5003;67164;51.202;0.278;2023-11-22T08:24:00;2;2;
77974;PMS5003;67164;51.202;0.278;2023-11-22T08:26:26;6;6;
77974;PMS5003;67164;51.202;0.278;2023-11-22T08:28:51;5;5;
77974;PMS5003;67164;51.202;0.278;2023-11-22T08:31:17;4;4;
77974;PMS5003;67164;51.202;0.278;2023-11-22T08:33:43;5;3;
77974;PMS5003;67164;51.202;0.278;2023-11-22T08:36:09;4;4;
77974;PMS5003;67164;51.202;0.278;2023-11-22T08:38:35;5;5;
77974;PMS5003;67164;51.202;0.278;2023-11-22T08:41:01;3;3;
77974;PMS5003;67164;51.202;0.278;2023-11-22T08:43:26;4;4;
77974;PMS5003;67164;51.202;0.278;2023-11-22T08:45:52;6;4;
77974;PMS5003;67164;51.202;0.278;2023-11-22T08:48:18;6;5;
77974;PMS5003;67164;51.202;0.278;2023-11-22T08:50:44;5;5;
77974;PMS5003;67164;51.202;0.278;2023-11-22T08:53:10;6;6;
77974;PMS5003;67164;51.202;0.278;2023-11-22T08:55:35;8;4;
77974;PMS5003;67164;51.202;0.278;2023-11-22T08:58:01;5;4;
77974;PMS5003;67164;51.202;0.278;2023-11-22T09:00:27;6;5;
77974;PMS5003;67164;51.202;0.278;2023-11-22T09:02:52;4;4;
77974;PMS5003;67164;51.202;0.278;2023-11-22T09:05:18;5;5;
77974;PMS5003;67164;51.202;0.278;2023-11-22T09:07:44;7;5;
77974;PMS5003;67164;51.202;0.278;2023-11-22T09:10:10;5;4;
77974;PMS5003;67164;51.202;0.278;2023-11-22T09:12:36;9;6;
77974;PMS5003;67164;51.202;0.278;2023-11-22T09:15:01;7;6;
77974;PMS5003;67164;51.202;0.278;2023-11-22T09:17:27;8;6;
77974;PMS5003;67164;51.202;0.278;2023-11-22T09:19:53;8;8;
77974;PMS5003;67164;51.202;0.278;2023-11-22T09:22:19;12;8;
77974;PMS5003;67164;51.202;0.278;2023-11-22T09:24:44;9;7;
77974;PMS5003;67164;51.202;0.278;2023-11-22T09:27:10;8;8;
77974;PMS5003;67164;51.202;0.278;2023-11-22T09:29:36;8;7;
77974;PMS5003;67164;51.202;0.278;2023-11-22T09:32:02;9;6;
77974;PMS5003;67164;51.202;0.278;2023-11-22T09:34:28;8;8;
77974;PMS5003;67164;51.202;0.278;2023-11-22T09:36:54;15;10;
77974;PMS5003;67164;51.202;0.278;2023-11-22T09:39:19;10;9;
77974;PMS5003;67164;51.202;0.278;2023-11-22T09:41:45;9;9;
77974;PMS5003;67164;51.202;0.278;2023-11-22T09:44:11;8;8;
77974;PMS5003;67164;51.202;0.278;2023-11-22T09:46:37;8;8;
77974;PMS5003;67164;51.202;0.278;2023-11-22T09:49:03;11;8;
77974;PMS5003;67164;51.202;0.278;2023-11-22T09:51:29;12;10;
77974;PMS5003;67164;51.202;0.278;2023-11-22T09:53:55;13;10;
77974;PMS5003;67164;51.202;0.278;2023-11-22T09:56:20;12;6;
77974;PMS5003;67164;51.202;0.278;2023-11-22T09:58:46;9;7;
77974;PMS5003;67164;51.202;0.278;2023-11-22T10:01:12;10;10;
77974;PMS5003;67164;51.202;0.278;2023-11-22T10:03:37;9;8;
77974;PMS5003;67164;51.202;0.278;2023-11-22T10:06:03;16;14;
77974;PMS5003;67164;51.202;0.278;2023-11-22T10:08:29;23;20;
77974;PMS5003;67164;51.202;0.278;2023-11-22T10:10:55;22;19;
77974;PMS5003;67164;51.202;0.278;2023-11-22T10:13:20;20;14;
77974;PMS5003;67164;51.202;0.278;2023-11-22T10:15:46;21;17;
77974;PMS5003;67164;51.202;0.278;2023-11-22T10:18:11;19;16;
77974;PMS5003;67164;51.202;0.278;2023-11-22T10:20:38;13;12;
77974;PMS5003;67164;51.202;0.278;2023-11-22T10:23:03;12;12;
77974;PMS5003;67164;51.202;0.278;2023-11-22T10:25:28;16;13;
77974;PMS5003;67164;51.202;0.278;2023-11-22T10:27:54;13;11;
77974;PMS5003;67164;51.202;0.278;2023-11-22T10:30:20;12;11;
77974;PMS5003;67164;51.202;0.278;2023-11-22T10:32:46;8;8;
77974;PMS5003;67164;51.202;0.278;2023-11-22T10:35:12;11;9;
77974;PMS5003;67164;51.202;0.278;2023-11-22T10:37:38;9;9;
77974;PMS5003;67164;51.202;0.278;2023-11-22T10:40:04;10;10;
77974;PMS5003;67164;51.202;0.278;2023-11-22T10:42:29;8;7;
77974;PMS5003;67164;51.202;0.278;2023-11-22T10:44:55;11;8;
77974;PMS5003;67164;51.202;0.278;2023-11-22T10:47:20;13;11;
77974;PMS5003;67164;51.202;0.278;2023-11-22T10:49:46;12;8;
77974;PMS5003;67164;51.202;0.278;2023-11-22T10:52:12;7;6;
77974;PMS5003;67164;51.202;0.278;2023-11-22T10:54:38;6;6;
77974;PMS5003;67164;51.202;0.278;2023-11-22T10:57:03;10;7;
77974;PMS5003;67164;51.202;0.278;2023-11-22T10:59:29;11;7;
77974;PMS5003;67164;51.202;0.278;2023-11-22T11:01:55;10;8;
77974;PMS5003;67164;51.202;0.278;2023-11-22T11:04:23;6;6;
77974;PMS5003;67164;51.202;0.278;2023-11-22T11:06:47;13;7;
77974;PMS5003;67164;51.202;0.278;2023-11-22T11:09:17;10;9;
77974;PMS5003;67164;51.202;0.278;2023-11-22T11:11:38;7;6;
77974;PMS5003;67164;51.202;0.278;2023-11-22T11:14:03;9;8;
77974;PMS5003;67164;51.202;0.278;2023-11-22T11:16:29;9;7;
77974;PMS5003;67164;51.202;0.278;2023-11-22T11:18:55;9;6;
77974;PMS5003;67164;51.202;0.278;2023-11-22T11:21:20;9;7;
77974;PMS5003;67164;51.202;0.278;2023-11-22T11:23:46;13;8;
77974;PMS5003;67164;51.202;0.278;2023-11-22T11:26:16;11;9;
77974;PMS5003;67164;51.202;0.278;2023-11-22T11:28:41;12;8;
77974;PMS5003;67164;51.202;0.278;2023-11-22T11:31:04;7;7;
77974;PMS5003;67164;51.202;0.278;2023-11-22T11:33:32;11;8;
77974;PMS5003;67164;51.202;0.278;2023-11-22T11:35:56;10;10;
77974;PMS5003;67164;51.202;0.278;2023-11-22T11:38:21;9;9;
77974;PMS5003;67164;51.202;0.278;2023-11-22T11:40:49;9;8;
77974;PMS5003;67164;51.202;0.278;2023-11-22T11:43:12;9;9;
77974;PMS5003;67164;51.202;0.278;2023-11-22T11:45:39;9;8;
77974;PMS5003;67164;51.202;0.278;2023-11-22T11:48:04;7;7;
77974;PMS5003;67164;51.202;0.278;2023-11-22T11:50:30;9;8;
77974;PMS5003;67164;51.202;0.278;2023-11-22T11:52:56;11;9;
77974;PMS5003;67164;51.202;0.278;2023-11-22T11:55:21;8;8;
77974;PMS5003;67164;51.202;0.278;2023-11-22T11:57:47;12;9;
77974;PMS5003;67164;51.202;0.278;2023-11-22T12:00:13;8;8;
77974;PMS5003;67164;51.202;0.278;2023-11-22T12:02:39;14;10;
77974;PMS5003;67164;51.202;0.278;2023-11-22T12:05:05;12;10;
77974;PMS5003;67164;51.202;0.278;2023-11-22T12:07:30;9;9;
77974;PMS5003;67164;51.202;0.278;2023-11-22T12:09:56;12;12;
77974;PMS5003;67164;51.202;0.278;2023-11-22T12:12:21;23;22;
77974;PMS5003;67164;51.202;0.278;2023-11-22T12:14:47;18;16;
77974;PMS5003;67164;51.202;0.278;2023-11-22T12:17:13;21;17;
77974;PMS5003;67164;51.202;0.278;2023-11-22T12:19:39;17;15;
77974;PMS5003;67164;51.202;0.278;2023-11-22T12:22:05;16;16;
77974;PMS5003;67164;51.202;0.278;2023-11-22T12:24:30;19;16;
77974;PMS5003;67164;51.202;0.278;2023-11-22T12:26:56;16;14;
77974;PMS5003;67164;51.202;0.278;2023-11-22T12:29:23;18;17;
77974;PMS5003;67164;51.202;0.278;2023-11-22T12:31:48;18;17;
77974;PMS5003;67164;51.202;0.278;2023-11-22T12:34:14;15;15;
77974;PMS5003;67164;51.202;0.278;2023-11-22T12:36:40;20;17;
77974;PMS5003;67164;51.202;0.278;2023-11-22T12:39:06;14;12;
77974;PMS5003;67164;51.202;0.278;2023-11-22T12:41:31;16;15;
77974;PMS5003;67164;51.202;0.278;2023-11-22T12:44:02;12;12;
77974;PMS5003;67164;51.202;0.278;2023-11-22T12:46:22;13;13;
77974;PMS5003;67164;51.202;0.278;2023-11-22T12:48:48;11;11;
77974;PMS5003;67164;51.202;0.278;2023-11-22T12:51:14;10;10;
77974;PMS5003;67164;51.202;0.278;2023-11-22T12:53:39;8;8;
77974;PMS5003;67164;51.202;0.278;2023-11-22T12:56:05;12;12;
77974;PMS5003;67164;51.202;0.278;2023-11-22T12:58:31;9;9;
77974;PMS5003;67164;51.202;0.278;2023-11-22T13:00:56;8;7;
77974;PMS5003;67164;51.202;0.278;2023-11-22T13:03:23;10;7;
77974;PMS5003;67164;51.202;0.278;2023-11-22T13:05:48;8;8;
77974;PMS5003;67164;51.202;0.278;2023-11-22T13:08:14;7;6;
77974;PMS5003;67164;51.202;0.278;2023-11-22T13:10:40;9;9;
77974;PMS5003;67164;51.202;0.278;2023-11-22T13:13:06;9;8;
77974;PMS5003;67164;51.202;0.278;2023-11-22T13:15:31;6;6;
77974;PMS5003;67164;51.202;0.278;2023-11-22T13:17:57;6;6;
77974;PMS5003;67164;51.202;0.278;2023-11-22T13:20:23;4;4;
77974;PMS5003;67164;51.202;0.278;2023-11-22T13:22:49;5;5;
77974;PMS5003;67164;51.202;0.278;2023-11-22T13:25:15;5;5;
77974;PMS5003;67164;51.202;0.278;2023-11-22T13:27:40;7;5;
77974;PMS5003;67164;51.202;0.278;2023-11-22T13:30:07;4;4;
77974;PMS5003;67164;51.202;0.278;2023-11-22T13:32:32;5;5;
77974;PMS5003;67164;51.202;0.278;2023-11-22T13:34:58;4;4;
77974;PMS5003;67164;51.202;0.278;2023-11-22T13:37:24;5;3;
77974;PMS5003;67164;51.202;0.278;2023-11-22T13:39:49;4;4;
77974;PMS5003;67164;51.202;0.278;2023-11-22T13:42:15;6;4;
77974;PMS5003;67164;51.202;0.278;2023-11-22T13:44:41;4;3;
77974;PMS5003;67164;51.202;0.278;2023-11-22T13:47:07;3;3;
77974;PMS5003;67164;51.202;0.278;2023-11-22T13:49:33;3;3;
77974;PMS5003;67164;51.202;0.278;2023-11-22T13:51:58;4;4;
77974;PMS5003;67164;51.202;0.278;2023-11-22T13:54:24;3;3;
77974;PMS5003;67164;51.202;0.278;2023-11-22T13:56:50;4;4;
77974;PMS5003;67164;51.202;0.278;2023-11-22T13:59:16;6;6;
77974;PMS5003;67164;51.202;0.278;2023-11-22T14:01:42;4;3;
77974;PMS5003;67164;51.202;0.278;2023-11-22T14:04:08;3;3;
77974;PMS5003;67164;51.202;0.278;2023-11-22T14:06:33;6;4;
77974;PMS5003;67164;51.202;0.278;2023-11-22T14:08:59;3;3;
77974;PMS5003;67164;51.202;0.278;2023-11-22T14:11:25;4;4;
77974;PMS5003;67164;51.202;0.278;2023-11-22T14:13:51;4;4;
77974;PMS5003;67164;51.202;0.278;2023-11-22T14:16:16;1;1;
77974;PMS5003;67164;51.202;0.278;2023-11-22T14:18:42;3;3;
77974;PMS5003;67164;51.202;0.278;2023-11-22T14:21:08;2;2;
77974;PMS5003;67164;51.202;0.278;2023-11-22T14:23:34;4;4;
77974;PMS5003;67164;51.202;0.278;2023-11-22T14:25:59;3;3;
77974;PMS5003;67164;51.202;0.278;2023-11-22T14:28:25;3;3;
77974;PMS5003;67164;51.202;0.278;2023-11-22T14:30:51;4;4;
77974;PMS5003;67164;51.202;0.278;2023-11-22T14:33:17;3;3;
77974;PMS5003;67164;51.202;0.278;2023-11-22T14:35:43;4;2;
77974;PMS5003;67164;51.202;0.278;2023-11-22T14:38:09;4;3;
77974;PMS5003;67164;51.202;0.278;2023-11-22T14:40:34;3;3;
77974;PMS5003;67164;51.202;0.278;2023-11-22T14:43:00;4;4;
77974;PMS5003;67164;51.202;0.278;2023-11-22T14:45:26;3;3;
77974;PMS5003;67164;51.202;0.278;2023-11-22T14:47:52;5;3;
77974;PMS5003;67164;51.202;0.278;2023-11-22T14:50:17;5;3;
77974;PMS5003;67164;51.202;0.278;2023-11-22T14:52:43;4;3;
77974;PMS5003;67164;51.202;0.278;2023-11-22T14:55:09;3;3;
77974;PMS5003;67164;51.202;0.278;2023-11-22T14:57:35;6;3;
77974;PMS5003;67164;51.202;0.278;2023-11-22T15:00:01;3;3;
77974;PMS5003;67164;51.202;0.278;2023-11-22T15:02:26;3;3;
77974;PMS5003;67164;51.202;0.278;2023-11-22T15:04:52;3;3;
77974;PMS5003;67164;51.202;0.278;2023-11-22T15:07:18;3;3;
77974;PMS5003;67164;51.202;0.278;2023-11-22T15:09:43;4;4;
77974;PMS5003;67164;51.202;0.278;2023-11-22T15:12:09;5;4;
77974;PMS5003;67164;51.202;0.278;2023-11-22T15:14:35;5;5;
77974;PMS5003;67164;51.202;0.278;2023-11-22T15:17:01;2;2;
77974;PMS5003;67164;51.202;0.278;2023-11-22T15:19:27;6;3;
77974;PMS5003;67164;51.202;0.278;2023-11-22T15:21:52;5;5;
77974;PMS5003;67164;51.202;0.278;2023-11-22T15:24:23;5;5;
77974;PMS5003;67164;51.202;0.278;2023-11-22T15:26:44;8;5;
77974;PMS5003;67164;51.202;0.278;2023-11-22T15:29:10;6;6;
77974;PMS5003;67164;51.202;0.278;2023-11-22T15:31:36;10;9;
77974;PMS5003;67164;51.202;0.278;2023-11-22T15:34:01;9;7;
77974;PMS5003;67164;51.202;0.278;2023-11-22T15:36:27;10;9;
77974;PMS5003;67164;51.202;0.278;2023-11-22T15:38:53;11;11;
77974;PMS5003;67164;51.202;0.278;2023-11-22T15:41:19;14;11;
77974;PMS5003;67164;51.202;0.278;2023-11-22T15:43:44;13;13;
77974;PMS5003;67164;51.202;0.278;2023-11-22T15:46:11;16;12;
77974;PMS5003;67164;51.202;0.278;2023-11-22T15:48:36;17;14;
77974;PMS5003;67164;51.202;0.278;2023-11-22T15:51:02;13;13;
77974;PMS5003;67164;51.202;0.278;2023-11-22T15:53:28;13;12;
77974;PMS5003;67164;51.202;0.278;2023-11-22T15:55:53;14;13;
77974;PMS5003;67164;51.202;0.278;2023-11-22T15:58:19;12;12;
77974;PMS5003;67164;51.202;0.278;2023-11-22T16:00:45;14;13;
77974;PMS5003;67164;51.202;0.278;2023-11-22T16:03:10;14;11;
77974;PMS5003;67164;51.202;0.278;2023-11-22T16:05:36;12;12;
77974;PMS5003;67164;51.202;0.278;2023-11-22T16:08:02;13;11;
77974;PMS5003;67164;51.202;0.278;2023-11-22T16:10:28;10;10;
77974;PMS5003;67164;51.202;0.278;2023-11-22T16:12:53;12;12;
77974;PMS5003;67164;51.202;0.278;2023-11-22T16:15:19;10;10;
77974;PMS5003;67164;51.202;0.278;2023-11-22T16:17:44;16;13;
77974;PMS5003;67164;51.202;0.278;2023-11-22T16:20:10;13;11;
77974;PMS5003;67164;51.202;0.278;2023-11-22T16:22:35;18;13;
77974;PMS5003;67164;51.202;0.278;2023-11-22T16:25:00;11;11;
77974;PMS5003;67164;51.202;0.278;2023-11-22T16:27:26;13;10;
77974;PMS5003;67164;51.202;0.278;2023-11-22T16:29:52;11;11;
77974;PMS5003;67164;51.202;0.278;2023-11-22T16:32:18;8;7;
77974;PMS5003;67164;51.202;0.278;2023-11-22T16:34:43;14;9;